createdAt,value
2017-12-26T00:01:49.168Z,0.98
2017-12-26T00:04:16.633Z,0.93
2017-12-26T00:06:44.099Z,0.90
2017-12-26T00:09:11.849Z,0.97
2017-12-26T00:11:39.309Z,1.00
2017-12-26T00:14:06.778Z,1.01
2017-12-26T00:16:34.549Z,1.07
2017-12-26T00:19:02.006Z,0.99
2017-12-26T00:21:29.469Z,0.74
2017-12-26T00:23:57.223Z,0.90
2017-12-26T00:26:24.691Z,0.88
2017-12-26T00:28:52.154Z,0.89
2017-12-26T00:31:20.217Z,0.78
2017-12-26T00:33:47.680Z,0.84
2017-12-26T00:36:16.137Z,0.65
2017-12-26T00:38:44.451Z,0.73
2017-12-26T00:41:11.917Z,0.68
2017-12-26T00:43:39.381Z,0.69
2017-12-26T00:46:07.443Z,0.64
2017-12-26T00:48:34.921Z,0.73
2017-12-26T00:51:02.381Z,0.63
2017-12-26T00:53:30.123Z,0.53
2017-12-26T00:55:57.587Z,0.48
2017-12-26T00:58:25.049Z,0.56
2017-12-26T01:00:52.809Z,0.48
2017-12-26T01:03:20.262Z,0.52
2017-12-26T01:05:47.721Z,0.46
2017-12-26T01:08:15.500Z,0.48
2017-12-26T01:10:42.961Z,0.49
2017-12-26T01:13:10.413Z,0.55
2017-12-26T01:15:38.182Z,0.42
2017-12-26T01:18:05.648Z,0.40
2017-12-26T01:20:33.115Z,0.39
2017-12-26T01:23:00.851Z,0.37
2017-12-26T01:25:28.308Z,0.28
2017-12-26T01:27:55.766Z,0.51
2017-12-26T01:30:23.558Z,0.45
2017-12-26T01:32:51.012Z,0.60
2017-12-26T01:35:18.477Z,0.52
2017-12-26T01:37:48.401Z,0.56
2017-12-26T01:40:15.865Z,0.48
2017-12-26T01:42:43.324Z,0.46
2017-12-26T01:45:11.397Z,0.47
2017-12-26T01:47:38.862Z,0.42
2017-12-26T01:50:06.322Z,0.48
2017-12-26T01:52:34.699Z,0.34
2017-12-26T01:55:02.160Z,0.39
2017-12-26T01:57:29.634Z,0.43
2017-12-26T01:59:57.389Z,0.46
2017-12-26T02:02:26.227Z,0.59
2017-12-26T02:04:53.689Z,0.52
2017-12-26T02:07:21.456Z,0.34
2017-12-26T02:09:48.914Z,0.30
2017-12-26T02:12:16.378Z,0.30
2017-12-26T02:14:44.296Z,0.23
2017-12-26T02:17:11.777Z,-0.02
2017-12-26T02:19:39.250Z,-0.13
2017-12-26T02:22:06.981Z,-0.15
2017-12-26T02:24:34.450Z,-0.03
2017-12-26T02:27:01.923Z,-0.07
2017-12-26T02:29:29.981Z,0.20
2017-12-26T02:31:57.434Z,0.25
2017-12-26T02:34:24.896Z,0.29
2017-12-26T02:36:52.637Z,0.37
2017-12-26T02:39:20.640Z,0.50
2017-12-26T02:41:48.129Z,0.40
2017-12-26T02:44:15.980Z,0.30
2017-12-26T02:46:43.442Z,0.38
2017-12-26T02:49:10.914Z,0.36
2017-12-26T02:51:38.898Z,0.40
2017-12-26T02:54:06.378Z,0.26
2017-12-26T02:56:33.858Z,0.14
2017-12-26T02:59:02.260Z,-0.04
2017-12-26T03:01:29.727Z,-0.13
2017-12-26T03:03:57.193Z,0.27
2017-12-26T03:06:24.874Z,0.37
2017-12-26T03:08:52.332Z,0.15
2017-12-26T03:11:19.789Z,0.41
2017-12-26T03:13:47.632Z,0.01
2017-12-26T03:16:15.097Z,0.23
2017-12-26T03:18:42.557Z,-0.02
2017-12-26T03:21:10.317Z,-0.26
2017-12-26T03:23:37.789Z,-0.40
2017-12-26T03:26:05.253Z,-0.10
2017-12-26T03:28:33.000Z,0.00
2017-12-26T03:31:00.467Z,0.27
2017-12-26T03:33:27.936Z,0.27
2017-12-26T03:35:55.693Z,0.25
2017-12-26T03:38:23.150Z,0.04
2017-12-26T03:40:50.991Z,0.30
2017-12-26T03:43:18.997Z,0.32
2017-12-26T03:45:46.459Z,0.27
2017-12-26T03:48:13.917Z,0.06
2017-12-26T03:50:41.673Z,0.12
2017-12-26T03:53:09.148Z,-0.02
2017-12-26T03:55:36.609Z,0.05
2017-12-26T03:58:04.358Z,0.03
2017-12-26T04:00:31.825Z,0.00
2017-12-26T04:02:59.285Z,0.00
2017-12-26T04:05:27.362Z,0.05
2017-12-26T04:07:54.812Z,0.12
2017-12-26T04:10:22.270Z,0.18
2017-12-26T04:12:50.344Z,0.21
2017-12-26T04:15:17.814Z,0.08
2017-12-26T04:17:45.273Z,0.10
2017-12-26T04:20:13.349Z,0.06
2017-12-26T04:22:40.804Z,0.09
2017-12-26T04:25:08.257Z,0.11
2017-12-26T04:27:36.041Z,-0.42
2017-12-26T04:30:03.512Z,-0.19
2017-12-26T04:32:30.965Z,-0.34
2017-12-26T04:34:58.729Z,-0.17
2017-12-26T04:37:26.192Z,-0.08
2017-12-26T04:39:53.653Z,-0.10
2017-12-26T04:42:21.714Z,0.04
2017-12-26T04:44:49.173Z,-0.02
2017-12-26T04:47:16.637Z,-0.14
2017-12-26T04:49:44.402Z,0.00
2017-12-26T04:52:11.878Z,-0.09
2017-12-26T04:54:39.334Z,-0.25
2017-12-26T04:57:07.392Z,-0.25
2017-12-26T04:59:34.844Z,-0.36
2017-12-26T05:02:02.318Z,-0.22
2017-12-26T05:04:30.093Z,-0.08
2017-12-26T05:06:57.548Z,-0.16
2017-12-26T05:09:25.012Z,-0.06
2017-12-26T05:11:52.776Z,-0.10
2017-12-26T05:14:20.236Z,-0.18
2017-12-26T05:16:47.702Z,-0.09
2017-12-26T05:19:15.541Z,-0.17
2017-12-26T05:21:43.005Z,-0.37
2017-12-26T05:24:10.472Z,-0.69
2017-12-26T05:26:38.806Z,-0.29
2017-12-26T05:29:06.265Z,-0.38
2017-12-26T05:31:33.723Z,-0.34
2017-12-26T05:34:01.449Z,-0.14
2017-12-26T05:36:28.913Z,-0.03
2017-12-26T05:38:56.381Z,-0.19
2017-12-26T05:41:25.033Z,-0.21
2017-12-26T05:43:52.506Z,-0.20
2017-12-26T05:46:19.961Z,-0.37
2017-12-26T05:48:47.738Z,-0.26
2017-12-26T05:51:15.193Z,-0.39
2017-12-26T05:53:42.654Z,-0.34
2017-12-26T05:56:10.452Z,-0.57
2017-12-26T05:58:37.913Z,-0.29
2017-12-26T06:01:05.375Z,-0.28
2017-12-26T06:03:33.073Z,-0.26
2017-12-26T06:06:00.545Z,-0.16
2017-12-26T06:08:28.117Z,-0.31
2017-12-26T06:10:56.053Z,-0.08
2017-12-26T06:13:23.516Z,-0.33
2017-12-26T06:15:50.981Z,-0.31
2017-12-26T06:18:18.792Z,-0.06
2017-12-26T06:20:46.250Z,-0.05
2017-12-26T06:23:13.716Z,-0.33
2017-12-26T06:25:41.514Z,-0.05
2017-12-26T06:28:08.996Z,-0.28
2017-12-26T06:30:36.462Z,0.01
2017-12-26T06:33:04.166Z,-0.49
2017-12-26T06:35:31.636Z,-0.38
2017-12-26T06:37:59.099Z,-0.24
2017-12-26T06:40:27.121Z,-0.25
2017-12-26T06:42:54.581Z,-0.35
2017-12-26T06:45:22.458Z,-0.43
2017-12-26T06:47:50.453Z,-0.45
2017-12-26T06:50:17.917Z,-0.17
2017-12-26T06:52:45.382Z,-0.12
2017-12-26T06:55:13.159Z,-0.36
2017-12-26T06:57:40.623Z,-0.60
2017-12-26T07:00:08.097Z,-0.40
2017-12-26T07:02:36.153Z,-0.30
2017-12-26T07:05:03.613Z,-0.33
2017-12-26T07:07:31.080Z,-0.21
2017-12-26T07:09:58.841Z,-0.17
2017-12-26T07:12:26.380Z,-0.26
2017-12-26T07:14:53.836Z,-0.29
2017-12-26T07:17:21.828Z,-0.37
2017-12-26T07:19:49.292Z,-0.18
2017-12-26T07:22:23.206Z,-0.15
2017-12-26T07:24:50.670Z,-0.20
2017-12-26T07:27:18.145Z,-0.11
2017-12-26T07:29:46.198Z,-0.42
2017-12-26T07:32:13.662Z,-0.42
2017-12-26T07:34:41.137Z,-0.39
2017-12-26T07:37:09.196Z,-0.19
2017-12-26T07:39:36.678Z,-0.21
2017-12-26T07:42:04.144Z,-0.17
2017-12-26T07:44:31.857Z,-0.25
2017-12-26T07:47:00.037Z,-0.24
2017-12-26T07:49:27.498Z,-0.22
2017-12-26T07:51:55.168Z,-0.22
2017-12-26T07:54:22.682Z,-0.23
2017-12-26T07:56:50.144Z,-0.23
2017-12-26T07:59:18.173Z,-0.18
2017-12-26T08:01:45.633Z,-0.15
2017-12-26T08:04:13.092Z,-0.19
2017-12-26T08:06:40.806Z,-0.14
2017-12-26T08:09:08.260Z,-0.09
2017-12-26T08:11:35.727Z,-0.14
2017-12-26T08:14:03.917Z,-0.01
2017-12-26T08:16:31.391Z,0.00
2017-12-26T08:18:58.853Z,-0.05
2017-12-26T08:21:26.859Z,-0.01
2017-12-26T08:23:54.319Z,0.09
2017-12-26T08:26:21.800Z,-0.03
2017-12-26T08:28:49.540Z,0.00
2017-12-26T08:31:17.013Z,-0.01
2017-12-26T08:33:44.478Z,0.07
2017-12-26T08:36:12.531Z,0.07
2017-12-26T08:38:39.995Z,0.16
2017-12-26T08:41:07.454Z,0.14
2017-12-26T08:43:35.220Z,0.16
2017-12-26T08:46:02.681Z,0.25
2017-12-26T08:48:30.520Z,0.22
2017-12-26T08:50:58.389Z,0.09
2017-12-26T08:53:25.853Z,0.13
2017-12-26T08:55:53.316Z,0.25
2017-12-26T08:58:21.215Z,0.15
2017-12-26T09:00:48.678Z,0.23
2017-12-26T09:03:16.143Z,0.18
2017-12-26T09:05:43.895Z,0.22
2017-12-26T09:08:11.345Z,0.41
2017-12-26T09:10:38.814Z,0.33
2017-12-26T09:13:06.882Z,0.28
2017-12-26T09:15:34.336Z,0.27
2017-12-26T09:18:01.811Z,0.31
2017-12-26T09:20:30.190Z,0.28
2017-12-26T09:22:57.653Z,0.50
2017-12-26T09:25:25.106Z,0.44
2017-12-26T09:27:52.873Z,0.54
2017-12-26T09:30:20.328Z,0.58
2017-12-26T09:32:47.789Z,0.58
2017-12-26T09:35:15.566Z,0.57
2017-12-26T09:37:43.033Z,0.61
2017-12-26T09:40:10.488Z,0.69
2017-12-26T09:42:38.255Z,0.50
2017-12-26T09:45:05.758Z,0.70
2017-12-26T09:47:33.215Z,0.59
2017-12-26T09:50:01.866Z,0.70
2017-12-26T09:52:29.326Z,0.81
2017-12-26T09:54:56.785Z,0.80
2017-12-26T09:57:24.499Z,0.72
2017-12-26T09:59:51.965Z,0.80
2017-12-26T10:02:19.421Z,0.86
2017-12-26T10:04:47.227Z,0.62
2017-12-26T10:07:14.693Z,0.97
2017-12-26T10:09:42.159Z,0.93
2017-12-26T10:12:09.777Z,0.77
2017-12-26T10:14:37.233Z,0.79
2017-12-26T10:17:04.685Z,0.76
2017-12-26T10:19:32.398Z,1.01
2017-12-26T10:21:59.856Z,0.87
2017-12-26T10:24:27.320Z,1.03
2017-12-26T10:26:55.298Z,1.10
2017-12-26T10:29:22.762Z,1.40
2017-12-26T10:31:50.227Z,0.80
2017-12-26T10:34:17.983Z,0.85
2017-12-26T10:36:45.462Z,0.56
2017-12-26T10:39:12.925Z,1.56
2017-12-26T10:41:40.679Z,1.22
2017-12-26T10:44:08.147Z,1.42
2017-12-26T10:46:35.630Z,1.40
2017-12-26T10:49:03.372Z,1.60
2017-12-26T10:51:31.510Z,1.39
2017-12-26T10:53:58.986Z,0.83
2017-12-26T10:56:26.665Z,1.54
2017-12-26T10:58:54.139Z,1.20
2017-12-26T11:01:21.607Z,1.16
2017-12-26T11:03:49.348Z,1.40
2017-12-26T11:06:16.836Z,1.41
2017-12-26T11:08:44.311Z,1.02
2017-12-26T11:11:12.035Z,1.41
2017-12-26T11:13:39.517Z,1.86
2017-12-26T11:16:06.999Z,1.72
2017-12-26T11:18:35.035Z,1.88
2017-12-26T11:21:02.506Z,1.27
2017-12-26T11:23:29.988Z,1.86
2017-12-26T11:25:58.024Z,1.45
2017-12-26T11:28:25.491Z,1.74
2017-12-26T11:30:52.972Z,2.04
2017-12-26T11:33:21.014Z,1.65
2017-12-26T11:35:48.748Z,1.84
2017-12-26T11:38:16.229Z,2.05
2017-12-26T11:40:44.012Z,1.77
2017-12-26T11:43:11.487Z,1.68
2017-12-26T11:45:38.955Z,1.85
2017-12-26T11:48:06.697Z,1.60
2017-12-26T11:50:34.167Z,1.76
2017-12-26T11:53:02.922Z,2.19
2017-12-26T11:55:30.919Z,1.92
2017-12-26T11:57:58.391Z,1.92
2017-12-26T12:00:25.868Z,1.88
2017-12-26T12:02:53.914Z,1.72
2017-12-26T12:05:21.382Z,1.66
2017-12-26T12:07:49.104Z,1.70
2017-12-26T12:10:17.217Z,1.77
2017-12-26T12:12:44.681Z,1.78
2017-12-26T12:15:12.153Z,1.98
2017-12-26T12:17:39.902Z,1.97
2017-12-26T12:20:07.382Z,1.92
2017-12-26T12:22:34.858Z,1.68
2017-12-26T12:25:02.937Z,1.84
2017-12-26T12:27:30.407Z,1.87
2017-12-26T12:29:57.886Z,2.05
2017-12-26T12:32:25.603Z,2.03
2017-12-26T12:34:53.082Z,1.95
2017-12-26T12:37:20.557Z,1.85
2017-12-26T12:39:48.584Z,1.89
2017-12-26T12:42:16.057Z,1.82
2017-12-26T12:44:43.532Z,1.90
2017-12-26T12:47:11.262Z,1.87
2017-12-26T12:49:38.743Z,1.78
2017-12-26T12:52:06.210Z,1.65
2017-12-26T12:54:34.266Z,1.92
2017-12-26T12:57:01.739Z,1.82
2017-12-26T12:59:29.207Z,1.66
2017-12-26T13:01:56.806Z,1.68
2017-12-26T13:04:24.279Z,1.64
2017-12-26T13:06:51.745Z,1.64
2017-12-26T13:09:19.638Z,1.55
2017-12-26T13:11:47.290Z,1.66
2017-12-26T13:14:14.761Z,1.62
2017-12-26T13:16:42.933Z,1.54
2017-12-26T13:19:10.407Z,1.51
2017-12-26T13:21:37.883Z,1.34
2017-12-26T13:24:05.934Z,1.35
2017-12-26T13:26:33.408Z,1.34
2017-12-26T13:29:00.891Z,1.43
2017-12-26T13:31:28.601Z,1.54
2017-12-26T13:33:56.199Z,1.47
2017-12-26T13:36:23.672Z,1.70
2017-12-26T13:45:34.978Z,1.58
2017-12-26T13:48:02.437Z,1.57
2017-12-26T13:50:29.893Z,1.43
2017-12-26T13:52:57.652Z,1.47
2017-12-26T13:55:27.342Z,1.43
2017-12-26T13:57:54.802Z,1.59
2017-12-26T14:00:22.397Z,1.58
2017-12-26T14:02:49.857Z,1.56
2017-12-26T14:05:17.318Z,1.25
2017-12-26T14:07:45.183Z,1.61
2017-12-26T14:10:12.656Z,1.48
2017-12-26T14:12:40.113Z,1.60
2017-12-26T14:15:07.715Z,1.37
2017-12-26T14:17:35.172Z,1.61
2017-12-26T14:20:02.633Z,1.66
2017-12-26T14:22:30.553Z,1.63
2017-12-26T14:24:58.016Z,1.55
2017-12-26T14:27:25.484Z,1.65
2017-12-26T14:29:53.232Z,1.63
2017-12-26T14:32:20.695Z,1.50
2017-12-26T14:34:48.167Z,1.61
2017-12-26T14:37:16.553Z,1.57
2017-12-26T14:39:44.014Z,1.69
2017-12-26T14:42:11.507Z,1.72
2017-12-26T14:44:39.233Z,1.67
2017-12-26T14:47:06.692Z,1.45
2017-12-26T14:49:34.149Z,1.24
2017-12-26T14:52:02.217Z,1.54
2017-12-26T14:54:29.693Z,1.48
2017-12-26T14:56:57.710Z,1.53
2017-12-26T14:59:25.583Z,1.49
2017-12-26T15:01:53.013Z,1.42
2017-12-26T15:04:20.488Z,1.36
2017-12-26T15:06:48.383Z,1.30
2017-12-26T15:09:15.847Z,1.04
2017-12-26T15:11:43.320Z,1.39
2017-12-26T15:14:11.211Z,1.24
2017-12-26T15:16:38.680Z,1.15
2017-12-26T15:19:06.136Z,1.23
2017-12-26T15:21:33.889Z,1.10
2017-12-26T15:24:01.347Z,1.10
2017-12-26T15:26:28.814Z,1.14
2017-12-26T15:28:56.536Z,1.16
2017-12-26T15:31:23.990Z,1.13
2017-12-26T15:33:51.452Z,1.28
2017-12-26T15:36:19.572Z,1.15
2017-12-26T15:38:47.088Z,1.11
2017-12-26T15:41:14.517Z,1.09
2017-12-26T15:43:42.265Z,1.06
2017-12-26T15:46:09.737Z,1.02
2017-12-26T15:48:37.202Z,1.06
2017-12-26T15:51:04.925Z,1.01
2017-12-26T15:53:32.381Z,0.92
2017-12-26T15:55:59.841Z,1.01
2017-12-26T15:58:29.173Z,1.07
2017-12-26T16:00:56.636Z,0.73
2017-12-26T16:03:24.378Z,0.91
2017-12-26T16:05:52.756Z,0.77
2017-12-26T16:08:20.227Z,0.77
2017-12-26T16:10:47.689Z,0.77
2017-12-26T16:13:15.470Z,0.72
2017-12-26T16:15:42.940Z,0.72
2017-12-26T16:18:10.431Z,0.62
2017-12-26T16:20:38.140Z,0.37
2017-12-26T16:23:06.798Z,0.23
2017-12-26T16:25:34.257Z,0.20
2017-12-26T16:28:02.214Z,0.07
2017-12-26T16:30:29.680Z,0.04
2017-12-26T16:32:57.145Z,0.06
2017-12-26T16:35:25.581Z,0.14
2017-12-26T16:37:53.084Z,0.06
2017-12-26T16:40:20.550Z,0.04
2017-12-26T16:42:48.367Z,0.02
2017-12-26T16:45:15.910Z,0.20
2017-12-26T16:47:43.401Z,0.04
2017-12-26T16:50:11.045Z,-0.20
2017-12-26T16:52:38.513Z,-0.21
2017-12-26T16:55:05.987Z,-0.07
2017-12-26T16:57:34.053Z,-0.20
2017-12-26T17:00:02.526Z,-0.19
2017-12-26T17:02:30.038Z,-0.12
2017-12-26T17:04:57.841Z,-0.05
2017-12-26T17:07:25.318Z,0.00
2017-12-26T17:09:52.772Z,0.03
2017-12-26T17:12:20.695Z,0.03
2017-12-26T17:14:48.157Z,0.02
2017-12-26T17:17:15.662Z,-0.01
2017-12-26T17:19:43.339Z,0.04
2017-12-26T17:22:10.794Z,0.11
2017-12-26T17:24:38.257Z,0.09
2017-12-26T17:27:06.030Z,0.03
2017-12-26T17:29:33.491Z,-0.01
2017-12-26T17:32:00.970Z,-0.09
2017-12-26T17:34:28.709Z,-0.04
2017-12-26T17:36:56.165Z,-0.05
2017-12-26T17:39:23.626Z,-0.04
2017-12-26T17:41:51.424Z,0.02
2017-12-26T17:44:18.882Z,0.13
2017-12-26T17:46:46.345Z,0.12
2017-12-26T17:49:14.394Z,0.20
2017-12-26T17:51:41.854Z,0.19
2017-12-26T17:54:09.321Z,-0.07
2017-12-26T17:56:37.081Z,-0.07
2017-12-26T17:59:04.545Z,-0.08
2017-12-26T18:01:32.391Z,-0.16
2017-12-26T18:04:00.379Z,0.06
2017-12-26T18:06:27.861Z,0.03
2017-12-26T18:08:55.321Z,-0.16
2017-12-26T18:11:23.074Z,0.22
2017-12-26T18:13:50.537Z,0.33
2017-12-26T18:16:17.994Z,0.02
2017-12-26T18:18:45.970Z,0.20
2017-12-26T18:21:13.440Z,0.04
2017-12-26T18:23:40.909Z,0.18
2017-12-26T18:26:08.749Z,0.15
2017-12-26T18:31:09.368Z,0.16
2017-12-26T18:33:36.815Z,0.31
2017-12-26T18:36:04.286Z,0.31
2017-12-26T18:38:32.190Z,0.08
2017-12-26T18:40:59.661Z,0.05
2017-12-26T18:43:27.121Z,-0.09
2017-12-26T18:45:54.874Z,0.25
2017-12-26T18:48:22.324Z,0.34
2017-12-26T18:50:49.820Z,0.28
2017-12-26T18:53:17.569Z,0.03
2017-12-26T18:55:45.036Z,0.16
2017-12-26T18:58:12.498Z,0.22
2017-12-26T19:00:40.257Z,0.08
2017-12-26T19:03:08.100Z,0.07
2017-12-26T19:05:35.560Z,0.25
2017-12-26T19:08:03.550Z,0.50
2017-12-26T19:10:31.042Z,0.59
2017-12-26T19:12:58.541Z,0.69
2017-12-26T19:15:26.541Z,0.59
2017-12-26T19:17:54.018Z,0.51
2017-12-26T19:20:21.489Z,0.28
2017-12-26T19:22:49.545Z,0.29
2017-12-26T19:25:17.028Z,0.28
2017-12-26T19:27:44.489Z,0.35
2017-12-26T19:30:12.224Z,0.34
2017-12-26T19:32:39.699Z,0.55
2017-12-26T19:35:07.160Z,0.54
2017-12-26T19:37:34.782Z,0.31
2017-12-26T19:40:02.248Z,0.27
2017-12-26T19:42:29.717Z,0.24
2017-12-26T19:44:57.648Z,0.18
2017-12-26T19:47:25.137Z,0.24
2017-12-26T19:49:52.607Z,0.40
2017-12-26T19:52:20.280Z,0.69
2017-12-26T19:54:47.740Z,0.66
2017-12-26T19:57:15.242Z,0.69
2017-12-26T19:59:43.024Z,0.59
2017-12-26T20:02:10.493Z,0.62
2017-12-26T20:04:38.740Z,0.50
2017-12-26T20:07:06.897Z,0.50
2017-12-26T20:09:34.966Z,0.71
2017-12-26T20:12:02.807Z,0.81
2017-12-26T20:14:31.123Z,0.71
2017-12-26T20:16:58.600Z,0.82
2017-12-26T20:19:26.659Z,0.74
2017-12-26T20:21:54.454Z,0.61
2017-12-26T20:24:22.504Z,0.65
2017-12-26T20:26:50.426Z,0.52
2017-12-26T20:29:21.002Z,0.57
2017-12-26T20:31:49.180Z,0.56
2017-12-26T20:34:17.293Z,0.49
2017-12-26T20:36:46.611Z,0.14
2017-12-26T20:39:14.837Z,0.54
2017-12-26T20:41:42.335Z,0.62
2017-12-26T20:44:10.762Z,0.52
2017-12-26T20:46:38.731Z,0.40
2017-12-26T20:49:06.326Z,0.54
2017-12-26T20:51:34.740Z,0.53
2017-12-26T20:54:02.680Z,0.45
2017-12-26T20:56:30.730Z,0.42
2017-12-26T20:58:59.008Z,0.51
2017-12-26T21:01:26.769Z,0.49
2017-12-26T21:03:54.962Z,0.46
2017-12-26T21:06:23.479Z,0.61
2017-12-26T21:08:50.999Z,0.60
2017-12-26T21:11:18.722Z,0.44
2017-12-26T21:13:46.893Z,0.47
2017-12-26T21:16:14.558Z,0.34
2017-12-26T21:18:42.449Z,0.35
2017-12-26T21:21:10.358Z,0.50
2017-12-26T21:23:38.433Z,0.59
2017-12-26T21:26:06.510Z,0.43
2017-12-26T21:28:34.914Z,0.22
2017-12-26T21:31:02.695Z,0.44
2017-12-26T21:33:30.638Z,0.64
2017-12-26T21:35:59.459Z,0.64
2017-12-26T21:38:26.937Z,0.60
2017-12-26T21:40:54.696Z,0.44
2017-12-26T21:43:23.328Z,0.27
2017-12-26T21:45:50.823Z,0.47
2017-12-26T21:48:18.283Z,0.55
2017-12-26T21:50:46.031Z,0.26
2017-12-26T21:53:13.669Z,0.61
2017-12-26T21:55:41.127Z,0.35
2017-12-26T21:58:09.941Z,0.46
2017-12-26T22:00:37.405Z,0.52
2017-12-26T22:03:04.862Z,0.35
2017-12-26T22:05:32.626Z,0.57
2017-12-26T22:08:00.781Z,0.35
2017-12-26T22:10:28.244Z,0.58
2017-12-26T22:12:55.977Z,0.77
2017-12-26T22:15:23.448Z,0.84
2017-12-26T22:17:50.921Z,0.88
2017-12-26T22:20:18.700Z,0.54
2017-12-26T22:22:46.170Z,0.57
2017-12-26T22:25:14.496Z,0.42
2017-12-26T22:27:42.529Z,0.64
2017-12-26T22:30:10.008Z,0.74
2017-12-26T22:32:37.476Z,0.70
2017-12-26T22:35:05.226Z,0.72
2017-12-26T22:37:32.696Z,0.58
2017-12-26T22:40:00.152Z,0.64
2017-12-26T22:42:27.910Z,0.56
2017-12-26T22:44:55.379Z,0.45
2017-12-26T22:47:22.845Z,0.46
2017-12-26T22:49:50.909Z,0.43
2017-12-26T22:52:18.384Z,0.25
2017-12-26T22:54:45.841Z,0.40
2017-12-26T22:57:13.600Z,0.10
2017-12-26T22:59:41.062Z,0.14
2017-12-26T23:02:08.527Z,0.09
2017-12-26T23:04:36.573Z,-0.25
2017-12-26T23:07:04.037Z,-0.37
2017-12-26T23:09:31.877Z,-0.43
2017-12-26T23:11:59.760Z,-0.16
2017-12-26T23:14:32.765Z,-0.14
2017-12-26T23:17:06.185Z,-0.11
2017-12-26T23:19:39.196Z,-0.26
2017-12-26T23:22:06.977Z,-0.06
2017-12-26T23:27:44.048Z,-0.24
2017-12-26T23:30:17.161Z,-0.30
2017-12-26T23:32:50.589Z,-0.26
2017-12-26T23:35:23.569Z,-0.15
2017-12-26T23:37:56.822Z,-0.39
2017-12-26T23:40:29.909Z,-0.33
2017-12-26T23:43:03.356Z,-0.51
2017-12-26T23:45:36.436Z,-0.54
2017-12-26T23:48:09.999Z,-0.29
2017-12-26T23:50:43.064Z,-0.66
2017-12-26T23:53:16.533Z,-0.37
2017-12-26T23:55:49.642Z,-0.37
2017-12-26T23:58:23.190Z,-0.45
